Terminal Aerodrome Forecast
Issued by NWS

Home | Current Version | Previous Version | Text Only | Print | Product List | Glossary On
Versions: 1 2 3 4 5 6 7 8 9 10 11 12
000
FTUS46 KOTX 240520
TAFPUW
TAF
KPUW 240520Z 2406/2506 27005KT P6SM FEW070 FEW120
     FM242100 29006KT P6SM FEW080
     FM250200 32003KT P6SM SKC=

USA.gov is the U.S. government's official web portal to all federal, state and local government web resources and services.